Time;durP1;ratioP1;P1;durP2;ratioP2;P2;SDS_P1;SDS_P2;PMS_P1;PMS_P2;Temp;Humidity;BMP_temperature;BMP_pressure;BME280_temperature;BME280_humidity;BME280_pressure;Samples;Min_cycle;Max_cycle;Signal;HPM_P1;HPM_P2
2022/02/19 00:00:50;;;;;;;4.72;0.43;;;;;;;;;;4838684;29;20034;-78
2022/02/19 00:03:16;;;;;;;5.18;0.68;;;;;;;;;;4840803;29;20052;-78
2022/02/19 00:05:42;;;;;;;5.30;0.90;;;;;;;;;;4842056;29;20030;-77
2022/02/19 00:08:09;;;;;;;5.70;0.60;;;;;;;;;;4841868;29;20046;-78
2022/02/19 00:10:35;;;;;;;4.85;0.80;;;;;;;;;;4850595;29;20040;-78
2022/02/19 00:13:01;;;;;;;7.90;0.93;;;;;;;;;;4854436;29;20040;-77
2022/02/19 00:15:27;;;;;;;3.15;0.68;;;;;;;;;;4848294;29;20045;-78
2022/02/19 00:17:54;;;;;;;4.45;0.55;;;;;;;;;;4861007;29;20372;-78
2022/02/19 00:20:20;;;;;;;5.20;0.50;;;;;;;;;;4846069;29;20042;-78
2022/02/19 00:22:46;;;;;;;7.30;0.88;;;;;;;;;;4856210;29;20041;-78
2022/02/19 00:25:12;;;;;;;4.75;0.60;;;;;;;;;;4847099;29;20451;-78
2022/02/19 00:27:38;;;;;;;5.80;0.50;;;;;;;;;;4860840;29;20041;-78
2022/02/19 00:30:05;;;;;;;5.85;0.70;;;;;;;;;;4846181;29;20116;-78
2022/02/19 00:32:31;;;;;;;5.88;0.65;;;;;;;;;;4849510;29;20112;-78
2022/02/19 00:34:57;;;;;;;5.25;0.60;;;;;;;;;;4848402;29;20052;-78
2022/02/19 00:37:23;;;;;;;4.53;0.85;;;;;;;;;;4843332;29;20029;-78
2022/02/19 00:39:49;;;;;;;7.82;0.75;;;;;;;;;;4845448;29;20109;-77
2022/02/19 00:42:15;;;;;;;7.78;0.75;;;;;;;;;;4850597;29;20044;-78
2022/02/19 00:44:41;;;;;;;6.68;0.68;;;;;;;;;;4841306;29;20034;-78
2022/02/19 00:47:08;;;;;;;5.88;0.63;;;;;;;;;;4841579;29;20090;-78
2022/02/19 00:49:34;;;;;;;2.90;0.50;;;;;;;;;;4841173;29;20045;-78
2022/02/19 00:52:00;;;;;;;5.35;0.70;;;;;;;;;;4841540;29;20379;-78
2022/02/19 00:54:26;;;;;;;4.20;0.60;;;;;;;;;;4841243;29;20740;-78
2022/02/19 00:56:52;;;;;;;4.93;0.70;;;;;;;;;;4848074;29;20054;-78
2022/02/19 00:59:18;;;;;;;5.18;1.35;;;;;;;;;;4859914;29;20060;-78
2022/02/19 01:01:44;;;;;;;4.18;0.77;;;;;;;;;;4856516;29;20037;-78
2022/02/19 01:04:10;;;;;;;4.07;0.55;;;;;;;;;;4859920;29;20042;-78
2022/02/19 01:06:36;;;;;;;6.97;0.50;;;;;;;;;;4843623;29;20063;-78
2022/02/19 01:09:02;;;;;;;5.32;0.45;;;;;;;;;;4841580;29;20038;-78
2022/02/19 01:11:29;;;;;;;9.60;1.25;;;;;;;;;;4847336;29;20486;-78
2022/02/19 01:13:55;;;;;;;2.35;0.38;;;;;;;;;;4858673;29;20066;-77
2022/02/19 01:16:21;;;;;;;5.88;0.80;;;;;;;;;;4852481;29;20650;-78
2022/02/19 01:18:47;;;;;;;3.35;0.40;;;;;;;;;;4851907;29;20511;-78
2022/02/19 01:21:15;;;;;;;6.25;0.60;;;;;;;;;;4852381;29;20774;-78
2022/02/19 01:23:41;;;;;;;2.60;0.40;;;;;;;;;;4841068;29;20061;-78
2022/02/19 01:26:07;;;;;;;4.03;0.55;;;;;;;;;;4840803;29;20038;-78
2022/02/19 01:28:34;;;;;;;12.95;0.70;;;;;;;;;;4845342;29;20086;-78
2022/02/19 01:31:00;;;;;;;5.80;0.50;;;;;;;;;;4859611;29;20057;-78
2022/02/19 01:33:26;;;;;;;5.45;0.57;;;;;;;;;;4840923;29;20434;-78
2022/02/19 01:35:52;;;;;;;4.22;0.50;;;;;;;;;;4857644;29;20033;-78
2022/02/19 01:38:18;;;;;;;6.88;0.70;;;;;;;;;;4849494;29;20118;-78
2022/02/19 01:40:44;;;;;;;4.32;0.50;;;;;;;;;;4859283;29;20038;-78
2022/02/19 01:43:11;;;;;;;4.85;0.75;;;;;;;;;;4846425;29;20077;-78
2022/02/19 01:45:37;;;;;;;6.07;0.77;;;;;;;;;;4855597;29;20555;-77
2022/02/19 01:48:03;;;;;;;5.10;0.80;;;;;;;;;;4856180;29;20049;-78
2022/02/19 01:50:29;;;;;;;7.50;1.00;;;;;;;;;;4858791;29;20124;-77
2022/02/19 01:52:55;;;;;;;5.07;0.70;;;;;;;;;;4849701;29;20041;-78
2022/02/19 01:55:22;;;;;;;7.35;1.00;;;;;;;;;;4840794;29;20029;-78
2022/02/19 01:57:48;;;;;;;6.70;0.77;;;;;;;;;;4848457;29;20158;-78
2022/02/19 02:00:15;;;;;;;4.38;0.80;;;;;;;;;;4848896;29;20041;-78
2022/02/19 02:02:42;;;;;;;5.53;0.82;;;;;;;;;;4846002;29;20125;-78
2022/02/19 02:05:08;;;;;;;4.25;0.70;;;;;;;;;;4840116;29;20034;-78
2022/02/19 02:07:35;;;;;;;4.45;0.68;;;;;;;;;;4845478;29;20041;-78
2022/02/19 02:10:01;;;;;;;6.07;0.98;;;;;;;;;;4840023;29;20059;-78
2022/02/19 02:12:27;;;;;;;7.05;0.95;;;;;;;;;;4839716;29;20042;-78
2022/02/19 02:14:53;;;;;;;9.73;0.88;;;;;;;;;;4840451;29;20041;-78
2022/02/19 02:17:19;;;;;;;4.95;0.60;;;;;;;;;;4846918;29;20977;-78
2022/02/19 02:19:45;;;;;;;4.57;0.50;;;;;;;;;;4850230;29;20030;-78
2022/02/19 02:22:14;;;;;;;2.90;0.70;;;;;;;;;;4858327;29;20085;-78
2022/02/19 02:24:40;;;;;;;6.47;0.70;;;;;;;;;;4839554;29;20049;-78
2022/02/19 02:27:08;;;;;;;6.90;0.60;;;;;;;;;;4840303;29;20038;-78
2022/02/19 02:29:41;;;;;;;3.10;0.40;;;;;;;;;;4843645;29;20488;-78
2022/02/19 02:32:07;;;;;;;3.72;0.57;;;;;;;;;;4855168;29;20044;-78
2022/02/19 02:34:33;;;;;;;5.30;0.80;;;;;;;;;;4826048;29;20044;-78
2022/02/19 02:36:59;;;;;;;7.30;0.60;;;;;;;;;;4840165;29;20548;-78
2022/02/19 02:39:25;;;;;;;5.97;0.52;;;;;;;;;;4839888;29;20049;-78
2022/02/19 02:41:51;;;;;;;3.75;0.60;;;;;;;;;;4840312;29;20141;-78
2022/02/19 02:44:18;;;;;;;5.18;0.70;;;;;;;;;;4839455;29;20045;-78
2022/02/19 02:46:44;;;;;;;6.30;0.60;;;;;;;;;;4840105;29;20202;-78
2022/02/19 02:49:10;;;;;;;2.95;0.38;;;;;;;;;;4839247;29;20092;-78
2022/02/19 02:51:36;;;;;;;5.82;0.80;;;;;;;;;;4839853;29;20112;-78
2022/02/19 02:54:02;;;;;;;4.05;0.70;;;;;;;;;;4838878;29;20049;-78
2022/02/19 02:56:28;;;;;;;7.20;1.00;;;;;;;;;;4839308;29;20735;-78
2022/02/19 02:58:54;;;;;;;7.75;1.00;;;;;;;;;;4839260;29;20044;-78
2022/02/19 03:01:20;;;;;;;6.90;1.30;;;;;;;;;;4839913;29;20033;-78
2022/02/19 03:03:46;;;;;;;3.13;0.50;;;;;;;;;;4845573;29;20073;-78
2022/02/19 03:06:12;;;;;;;4.80;0.65;;;;;;;;;;4839757;29;20037;-78
2022/02/19 03:08:38;;;;;;;7.07;0.70;;;;;;;;;;4839350;29;20046;-78
2022/02/19 03:11:04;;;;;;;7.22;0.70;;;;;;;;;;4845120;29;20049;-78
2022/02/19 03:13:30;;;;;;;6.28;0.52;;;;;;;;;;4847147;29;20038;-78
2022/02/19 03:15:56;;;;;;;5.25;1.00;;;;;;;;;;4846836;29;20049;-78
2022/02/19 03:18:22;;;;;;;3.55;0.75;;;;;;;;;;4839227;29;20049;-78
2022/02/19 03:20:48;;;;;;;5.85;0.85;;;;;;;;;;4838569;29;20744;-77
2022/02/19 03:23:14;;;;;;;7.88;0.70;;;;;;;;;;4839282;29;20046;-79
2022/02/19 03:25:40;;;;;;;4.88;0.70;;;;;;;;;;4839203;29;20034;-78
2022/02/19 03:28:06;;;;;;;6.03;0.90;;;;;;;;;;4842664;29;20736;-78
2022/02/19 03:30:32;;;;;;;8.90;1.52;;;;;;;;;;4849087;29;20034;-78
2022/02/19 03:32:58;;;;;;;7.75;1.20;;;;;;;;;;4840367;29;20062;-78
2022/02/19 03:35:24;;;;;;;11.95;1.00;;;;;;;;;;4843309;29;20033;-78
2022/02/19 03:37:50;;;;;;;6.10;0.73;;;;;;;;;;4838619;29;20465;-78
2022/02/19 03:40:16;;;;;;;9.35;2.15;;;;;;;;;;4839318;29;20045;-78
2022/02/19 03:42:43;;;;;;;8.05;1.08;;;;;;;;;;4838675;29;20106;-78
2022/02/19 03:45:10;;;;;;;7.10;1.02;;;;;;;;;;4839208;29;20524;-78
2022/02/19 03:47:36;;;;;;;6.43;1.30;;;;;;;;;;4839161;29;20038;-78
2022/02/19 03:50:06;;;;;;;5.25;1.10;;;;;;;;;;4836029;29;20082;-78
2022/02/19 03:52:33;;;;;;;5.95;0.95;;;;;;;;;;4855977;29;20037;-78
2022/02/19 03:54:59;;;;;;;3.63;0.70;;;;;;;;;;4839133;29;20857;-78
2022/02/19 03:57:25;;;;;;;6.07;0.80;;;;;;;;;;4838478;29;20057;-78
2022/02/19 03:59:51;;;;;;;4.82;0.77;;;;;;;;;;4838105;29;20112;-78
2022/02/19 04:02:17;;;;;;;6.32;1.17;;;;;;;;;;4838863;29;20046;-78
2022/02/19 04:04:43;;;;;;;4.13;0.90;;;;;;;;;;4838890;29;20852;-78
2022/02/19 04:07:10;;;;;;;8.38;1.10;;;;;;;;;;4841309;29;20121;-78
2022/02/19 04:09:36;;;;;;;7.05;0.93;;;;;;;;;;4838503;29;20749;-78
2022/02/19 04:12:02;;;;;;;4.57;0.95;;;;;;;;;;4838789;29;20038;-78
2022/02/19 04:14:28;;;;;;;7.60;1.42;;;;;;;;;;4837715;29;20038;-78
2022/02/19 04:16:54;;;;;;;5.28;1.42;;;;;;;;;;4838693;29;20523;-78
2022/02/19 04:19:20;;;;;;;6.47;1.30;;;;;;;;;;4837702;29;20038;-78
2022/02/19 04:21:46;;;;;;;7.45;1.30;;;;;;;;;;4839047;29;20045;-78
2022/02/19 04:24:12;;;;;;;8.98;1.00;;;;;;;;;;4841907;29;20047;-78
2022/02/19 04:26:38;;;;;;;8.57;1.10;;;;;;;;;;4846247;29;20041;-78
2022/02/19 04:29:04;;;;;;;10.18;0.73;;;;;;;;;;4838509;29;20077;-78
2022/02/19 04:31:30;;;;;;;4.28;0.77;;;;;;;;;;4838736;29;20037;-78
2022/02/19 04:33:56;;;;;;;6.25;0.70;;;;;;;;;;4838780;29;20041;-78
2022/02/19 04:36:22;;;;;;;5.57;0.73;;;;;;;;;;4838993;29;20038;-78
2022/02/19 04:38:48;;;;;;;7.65;1.15;;;;;;;;;;4839083;29;20267;-78
2022/02/19 04:41:14;;;;;;;4.72;0.68;;;;;;;;;;4838506;29;20078;-78
2022/02/19 04:43:40;;;;;;;6.10;0.90;;;;;;;;;;4845853;29;20034;-78
2022/02/19 04:46:06;;;;;;;5.60;1.00;;;;;;;;;;4841178;29;20041;-78
2022/02/19 04:48:33;;;;;;;8.00;1.42;;;;;;;;;;4849716;29;20369;-78
2022/02/19 04:50:59;;;;;;;6.82;1.13;;;;;;;;;;4843278;29;20041;-78
2022/02/19 04:53:25;;;;;;;6.63;1.10;;;;;;;;;;4842244;29;20519;-78
2022/02/19 04:55:51;;;;;;;6.13;0.90;;;;;;;;;;4838912;29;20040;-78
2022/02/19 04:58:17;;;;;;;10.00;1.13;;;;;;;;;;4848739;29;20136;-78
2022/02/19 05:00:43;;;;;;;5.38;0.82;;;;;;;;;;4852533;29;20063;-78
2022/02/19 05:03:09;;;;;;;4.30;0.85;;;;;;;;;;4841616;29;20050;-78
2022/02/19 05:05:35;;;;;;;8.57;1.10;;;;;;;;;;4845565;29;20121;-78
2022/02/19 05:08:01;;;;;;;8.32;1.45;;;;;;;;;;4823403;29;20117;-78
2022/02/19 05:10:27;;;;;;;5.90;0.85;;;;;;;;;;4849914;29;20388;-78
2022/02/19 05:12:53;;;;;;;6.55;1.67;;;;;;;;;;4844023;29;20030;-78
2022/02/19 05:15:19;;;;;;;11.05;1.80;;;;;;;;;;4841102;29;20042;-78
2022/02/19 05:17:51;;;;;;;8.52;0.95;;;;;;;;;;4841181;29;20034;-78
2022/02/19 05:20:21;;;;;;;8.77;1.33;;;;;;;;;;4845600;29;20716;-78
2022/02/19 05:22:47;;;;;;;10.55;1.70;;;;;;;;;;4847561;29;20034;-78
2022/02/19 05:25:13;;;;;;;8.95;1.15;;;;;;;;;;4841552;29;20044;-78
2022/02/19 05:27:39;;;;;;;10.25;1.35;;;;;;;;;;4844258;29;20043;-78
2022/02/19 05:30:05;;;;;;;10.65;1.70;;;;;;;;;;4845261;29;20403;-79
2022/02/19 05:32:31;;;;;;;12.95;1.15;;;;;;;;;;4844418;29;20109;-77
2022/02/19 05:34:57;;;;;;;9.65;1.45;;;;;;;;;;4841270;29;20045;-78
2022/02/19 05:37:23;;;;;;;8.90;1.15;;;;;;;;;;4841364;29;20682;-78
2022/02/19 05:39:49;;;;;;;10.50;1.42;;;;;;;;;;4840872;29;20483;-78
2022/02/19 05:42:16;;;;;;;10.13;1.23;;;;;;;;;;4841075;29;20033;-78
2022/02/19 05:44:42;;;;;;;8.75;1.10;;;;;;;;;;4840636;29;20153;-78
2022/02/19 05:47:08;;;;;;;4.45;0.68;;;;;;;;;;4841075;29;20132;-77
2022/02/19 05:49:34;;;;;;;6.75;1.10;;;;;;;;;;4842423;29;20075;-77
2022/02/19 05:52:00;;;;;;;9.07;0.85;;;;;;;;;;4849986;29;20515;-78
2022/02/19 05:54:26;;;;;;;7.65;1.20;;;;;;;;;;4839770;29;20473;-78
2022/02/19 05:56:52;;;;;;;5.60;0.75;;;;;;;;;;4840365;29;20050;-78
2022/02/19 05:59:18;;;;;;;9.88;1.42;;;;;;;;;;4840313;29;20038;-78
2022/02/19 06:01:44;;;;;;;11.25;0.90;;;;;;;;;;4840196;29;20044;-78
2022/02/19 06:04:10;;;;;;;8.32;0.98;;;;;;;;;;4839863;29;20480;-78
2022/02/19 06:06:36;;;;;;;6.45;0.77;;;;;;;;;;4847561;29;20069;-78
2022/02/19 06:09:02;;;;;;;9.55;1.00;;;;;;;;;;4837983;29;20042;-78
2022/02/19 06:11:28;;;;;;;6.82;0.80;;;;;;;;;;4850967;29;20034;-78
2022/02/19 06:13:54;;;;;;;12.02;1.13;;;;;;;;;;4843757;29;20473;-78
2022/02/19 06:16:20;;;;;;;12.82;1.20;;;;;;;;;;4836703;29;20030;-78
2022/02/19 06:18:47;;;;;;;6.93;1.33;;;;;;;;;;4839516;29;20041;-78
2022/02/19 06:21:13;;;;;;;10.75;1.42;;;;;;;;;;4834187;29;20034;-78
2022/02/19 06:23:39;;;;;;;5.35;1.38;;;;;;;;;;4829527;29;20389;-78
2022/02/19 06:26:05;;;;;;;10.93;2.13;;;;;;;;;;4840076;29;20038;-78
2022/02/19 06:28:31;;;;;;;10.55;2.15;;;;;;;;;;4847626;29;20203;-78
2022/02/19 06:30:57;;;;;;;8.48;1.85;;;;;;;;;;4823045;29;20460;-78
2022/02/19 06:33:23;;;;;;;11.32;1.70;;;;;;;;;;4839868;29;20116;-78
2022/02/19 06:35:49;;;;;;;10.45;1.70;;;;;;;;;;4842631;29;20032;-78
2022/02/19 06:38:15;;;;;;;11.82;2.03;;;;;;;;;;4838654;29;20109;-77
2022/02/19 06:40:41;;;;;;;9.05;1.95;;;;;;;;;;4840991;29;20044;-78
2022/02/19 06:43:07;;;;;;;9.13;2.20;;;;;;;;;;4839894;29;20433;-78
2022/02/19 06:45:33;;;;;;;8.48;1.65;;;;;;;;;;4839641;29;20037;-78
2022/02/19 06:47:59;;;;;;;8.18;1.88;;;;;;;;;;4845054;29;20037;-78
2022/02/19 06:50:26;;;;;;;10.23;1.67;;;;;;;;;;4840898;29;20094;-78
2022/02/19 06:52:52;;;;;;;7.10;1.80;;;;;;;;;;4840133;29;20075;-78
2022/02/19 06:55:18;;;;;;;11.70;1.65;;;;;;;;;;4853542;29;20042;-78
2022/02/19 06:57:48;;;;;;;9.55;1.70;;;;;;;;;;4839171;29;20045;-78
2022/02/19 07:00:14;;;;;;;8.48;2.00;;;;;;;;;;4839401;29;20768;-78
2022/02/19 07:02:41;;;;;;;9.73;2.47;;;;;;;;;;4841509;29;20054;-79
2022/02/19 07:05:08;;;;;;;13.45;3.70;;;;;;;;;;4843024;29;20041;-78
2022/02/19 07:07:34;;;;;;;10.48;3.42;;;;;;;;;;4839142;29;20113;-78
2022/02/19 07:10:00;;;;;;;15.98;4.30;;;;;;;;;;4839368;29;20042;-78
2022/02/19 07:12:26;;;;;;;11.00;2.95;;;;;;;;;;4838845;29;20038;-78
2022/02/19 07:14:52;;;;;;;11.35;3.08;;;;;;;;;;4837730;29;20034;-78
2022/02/19 07:17:18;;;;;;;14.35;2.90;;;;;;;;;;4836876;29;20034;-77
2022/02/19 07:19:44;;;;;;;8.20;2.30;;;;;;;;;;4832837;29;20087;-78
2022/02/19 07:22:10;;;;;;;9.70;2.63;;;;;;;;;;4838745;29;20482;-78
2022/02/19 07:24:36;;;;;;;11.18;2.47;;;;;;;;;;4839652;29;20042;-78
2022/02/19 07:27:02;;;;;;;13.18;2.58;;;;;;;;;;4844512;29;20034;-78
2022/02/19 07:29:28;;;;;;;11.93;2.65;;;;;;;;;;4821045;29;20831;-78
2022/02/19 07:31:54;;;;;;;10.82;2.72;;;;;;;;;;4835104;29;20038;-78
2022/02/19 07:34:20;;;;;;;11.38;2.85;;;;;;;;;;4839047;29;20038;-78
2022/02/19 07:36:46;;;;;;;10.07;3.05;;;;;;;;;;4841989;29;20082;-79
2022/02/19 07:39:12;;;;;;;10.23;3.08;;;;;;;;;;4838897;29;20041;-78
2022/02/19 07:41:39;;;;;;;10.45;3.08;;;;;;;;;;4839361;29;20049;-79
2022/02/19 07:44:05;;;;;;;13.48;3.78;;;;;;;;;;4840318;29;20577;-79
2022/02/19 07:46:31;;;;;;;9.90;4.13;;;;;;;;;;4841615;29;20044;-78
2022/02/19 07:58:17;;;;;;;11.27;4.40;;;;;;;;;;4842178;29;20144;-78
2022/02/19 07:59:58;;;;;;;17.02;4.80;;;;;;;;;;4835018;29;20054;-78
2022/02/19 08:02:24;;;;;;;10.15;4.13;;;;;;;;;;4841349;29;20037;-78
2022/02/19 08:04:50;;;;;;;15.23;5.40;;;;;;;;;;4838660;29;20041;-78
2022/02/19 08:07:16;;;;;;;12.40;4.55;;;;;;;;;;4842524;29;20042;-79
2022/02/19 08:09:42;;;;;;;16.20;5.07;;;;;;;;;;4838338;29;20034;-79
2022/02/19 08:12:08;;;;;;;16.10;5.00;;;;;;;;;;4839053;29;20869;-78
2022/02/19 08:14:34;;;;;;;13.40;4.55;;;;;;;;;;4841692;29;20038;-79
2022/02/19 08:17:00;;;;;;;23.13;7.30;;;;;;;;;;4839065;29;20049;-78
2022/02/19 08:19:26;;;;;;;17.75;6.03;;;;;;;;;;4847560;29;20040;-78
2022/02/19 08:21:52;;;;;;;18.05;6.45;;;;;;;;;;4835015;29;20176;-78
2022/02/19 08:24:18;;;;;;;17.05;7.25;;;;;;;;;;4838488;29;20117;-78
2022/02/19 08:26:44;;;;;;;15.20;5.75;;;;;;;;;;4840956;29;20038;-78
2022/02/19 08:29:10;;;;;;;11.82;4.10;;;;;;;;;;4839538;29;20037;-78
2022/02/19 08:31:36;;;;;;;11.73;3.60;;;;;;;;;;4838693;29;20058;-78
2022/02/19 08:34:03;;;;;;;14.05;5.13;;;;;;;;;;4851664;29;20045;-78
2022/02/19 08:36:29;;;;;;;13.80;5.43;;;;;;;;;;4841965;29;20042;-78
2022/02/19 08:38:55;;;;;;;11.05;4.00;;;;;;;;;;4841726;29;20113;-79
2022/02/19 08:41:21;;;;;;;14.73;4.15;;;;;;;;;;4846793;29;20146;-78
2022/02/19 08:43:47;;;;;;;10.35;3.63;;;;;;;;;;4860353;29;20108;-78
2022/02/19 08:46:13;;;;;;;11.90;3.25;;;;;;;;;;4843824;29;20034;-77
2022/02/19 08:48:39;;;;;;;9.50;3.50;;;;;;;;;;4841396;29;20038;-78
2022/02/19 08:51:05;;;;;;;16.00;4.60;;;;;;;;;;4846438;29;20044;-78
2022/02/19 08:53:31;;;;;;;13.45;6.32;;;;;;;;;;4841852;29;20040;-78
2022/02/19 08:55:57;;;;;;;10.90;3.75;;;;;;;;;;4834452;29;20545;-78
2022/02/19 08:58:24;;;;;;;11.80;3.53;;;;;;;;;;4840557;29;20126;-78
2022/02/19 09:00:50;;;;;;;11.23;3.90;;;;;;;;;;4840718;29;20038;-78
2022/02/19 09:03:16;;;;;;;11.45;3.47;;;;;;;;;;4841032;29;20111;-78
2022/02/19 09:05:44;;;;;;;10.95;3.60;;;;;;;;;;4840532;29;20509;-78
2022/02/19 09:08:10;;;;;;;12.88;3.58;;;;;;;;;;4841513;29;20078;-77
2022/02/19 09:10:36;;;;;;;10.32;3.47;;;;;;;;;;4849693;29;20041;-78
2022/02/19 09:13:02;;;;;;;11.27;2.28;;;;;;;;;;4841279;29;20037;-78
2022/02/19 09:15:29;;;;;;;13.85;2.90;;;;;;;;;;4840906;29;20034;-78
2022/02/19 09:17:55;;;;;;;7.57;2.28;;;;;;;;;;4844392;29;20036;-78
2022/02/19 09:20:22;;;;;;;10.57;2.25;;;;;;;;;;4841199;29;20053;-78
2022/02/19 09:22:48;;;;;;;14.18;2.60;;;;;;;;;;4841310;29;20041;-78
2022/02/19 09:25:15;;;;;;;10.45;2.38;;;;;;;;;;4848232;29;20380;-78
2022/02/19 09:27:41;;;;;;;15.20;3.28;;;;;;;;;;4835136;29;20442;-78
2022/02/19 09:30:08;;;;;;;11.05;4.10;;;;;;;;;;4822255;29;20489;-78
2022/02/19 09:32:35;;;;;;;13.50;4.13;;;;;;;;;;4833248;29;20141;-78
2022/02/19 09:35:01;;;;;;;13.57;4.30;;;;;;;;;;4847042;29;20041;-78
2022/02/19 09:37:30;;;;;;;9.75;3.35;;;;;;;;;;4837285;29;20071;-78
2022/02/19 09:39:56;;;;;;;11.10;2.30;;;;;;;;;;4836783;29;20042;-78
2022/02/19 09:42:23;;;;;;;10.23;2.20;;;;;;;;;;4844192;29;20069;-78
2022/02/19 09:44:49;;;;;;;11.90;1.75;;;;;;;;;;4840623;29;20045;-79
2022/02/19 09:47:20;;;;;;;9.15;1.58;;;;;;;;;;4840962;29;20030;-78
2022/02/19 09:49:47;;;;;;;8.00;1.40;;;;;;;;;;4859573;29;20051;-77
2022/02/19 09:52:13;;;;;;;5.97;1.55;;;;;;;;;;4841617;29;20049;-78
2022/02/19 09:54:39;;;;;;;10.52;1.80;;;;;;;;;;4841124;29;20034;-78
2022/02/19 09:57:05;;;;;;;11.48;2.40;;;;;;;;;;4843182;29;20126;-78
2022/02/19 09:59:31;;;;;;;10.40;2.03;;;;;;;;;;4840731;29;20046;-78
2022/02/19 10:02:01;;;;;;;8.98;1.50;;;;;;;;;;4840564;29;20707;-78
2022/02/19 10:04:27;;;;;;;9.48;1.25;;;;;;;;;;4827224;29;20046;-78
2022/02/19 10:06:57;;;;;;;7.03;1.25;;;;;;;;;;4833359;29;20034;-78
2022/02/19 10:09:24;;;;;;;11.98;2.08;;;;;;;;;;4823873;29;20046;-78
2022/02/19 10:11:50;;;;;;;9.80;1.33;;;;;;;;;;4835782;29;20030;-78
2022/02/19 10:14:28;;;;;;;10.70;2.10;;;;;;;;;;4839702;29;20046;-78
2022/02/19 10:17:04;;;;;;;7.95;1.50;;;;;;;;;;4833863;29;20030;-78
2022/02/19 10:19:30;;;;;;;12.13;1.60;;;;;;;;;;4833649;29;20373;-78
2022/02/19 10:22:09;;;;;;;8.27;1.02;;;;;;;;;;4840487;29;20042;-78
2022/02/19 10:24:36;;;;;;;12.50;1.55;;;;;;;;;;4839914;29;20073;-78
2022/02/19 10:27:03;;;;;;;8.27;1.48;;;;;;;;;;4846303;29;20480;-78
2022/02/19 10:29:32;;;;;;;7.07;1.20;;;;;;;;;;4840326;29;20697;-78
2022/02/19 10:31:58;;;;;;;9.38;1.67;;;;;;;;;;4839943;29;20384;-78
2022/02/19 10:34:24;;;;;;;7.72;1.63;;;;;;;;;;4839379;29;20069;-78
2022/02/19 10:36:51;;;;;;;9.02;1.15;;;;;;;;;;4839943;29;20132;-79
2022/02/19 10:39:27;;;;;;;8.93;1.13;;;;;;;;;;4844862;29;20041;-78
2022/02/19 10:41:56;;;;;;;5.88;1.52;;;;;;;;;;4840056;29;20041;-78
2022/02/19 10:44:23;;;;;;;9.23;1.30;;;;;;;;;;4838964;29;20465;-78
2022/02/19 10:46:50;;;;;;;8.90;1.35;;;;;;;;;;4839646;29;20476;-78
2022/02/19 10:49:16;;;;;;;9.60;1.48;;;;;;;;;;4853521;29;20037;-78
2022/02/19 10:51:43;;;;;;;11.25;1.27;;;;;;;;;;4847010;29;20038;-78
2022/02/19 10:54:10;;;;;;;12.27;1.50;;;;;;;;;;4839369;29;20687;-78
2022/02/19 10:56:37;;;;;;;10.50;1.95;;;;;;;;;;4846132;29;20034;-78
2022/02/19 10:59:04;;;;;;;10.23;1.52;;;;;;;;;;4842871;29;20070;-78
2022/02/19 11:01:43;;;;;;;9.15;1.27;;;;;;;;;;4839279;29;20034;-78
2022/02/19 11:04:10;;;;;;;9.55;1.13;;;;;;;;;;4839204;29;20145;-78
2022/02/19 11:06:36;;;;;;;11.25;1.40;;;;;;;;;;4842829;29;20047;-78
2022/02/19 11:09:03;;;;;;;11.85;1.70;;;;;;;;;;4839177;29;20079;-78
2022/02/19 11:11:29;;;;;;;12.55;1.00;;;;;;;;;;4820866;29;20647;-78
2022/02/19 11:13:56;;;;;;;12.73;1.60;;;;;;;;;;4839259;29;20121;-78
2022/02/19 11:16:23;;;;;;;9.98;1.20;;;;;;;;;;4843882;29;20030;-78
2022/02/19 11:18:49;;;;;;;9.88;1.70;;;;;;;;;;4854215;29;20117;-78
2022/02/19 11:21:16;;;;;;;10.82;2.53;;;;;;;;;;4852465;29;20075;-78
2022/02/19 11:23:46;;;;;;;12.43;1.98;;;;;;;;;;4839366;29;20041;-78
2022/02/19 11:26:12;;;;;;;7.35;1.10;;;;;;;;;;4844722;29;20076;-78
2022/02/19 11:28:39;;;;;;;11.18;1.55;;;;;;;;;;4839294;29;20046;-78
2022/02/19 11:31:06;;;;;;;9.82;1.50;;;;;;;;;;4841037;29;20037;-78
2022/02/19 11:33:32;;;;;;;10.02;1.90;;;;;;;;;;4841855;29;20034;-78
2022/02/19 11:36:03;;;;;;;13.85;1.75;;;;;;;;;;4835151;29;20840;-78
2022/02/19 11:38:35;;;;;;;6.82;1.33;;;;;;;;;;4845878;29;20116;-78
2022/02/19 11:41:10;;;;;;;9.13;1.25;;;;;;;;;;4838207;29;20118;-78
2022/02/19 11:43:39;;;;;;;9.45;1.27;;;;;;;;;;4832649;29;20117;-78
2022/02/19 11:46:14;;;;;;;9.57;1.27;;;;;;;;;;4838876;29;20038;-78
2022/02/19 11:48:45;;;;;;;10.10;1.55;;;;;;;;;;4838522;29;20052;-78
2022/02/19 11:51:11;;;;;;;10.10;1.20;;;;;;;;;;4838218;29;20041;-77
2022/02/19 11:53:37;;;;;;;12.48;1.20;;;;;;;;;;4838821;29;20044;-78
2022/02/19 11:56:10;;;;;;;9.60;1.70;;;;;;;;;;4838804;29;20065;-78
2022/02/19 11:58:48;;;;;;;7.55;1.10;;;;;;;;;;4839083;29;20064;-78
2022/02/19 12:01:14;;;;;;;7.22;0.95;;;;;;;;;;4854595;29;20836;-78
2022/02/19 12:03:40;;;;;;;9.18;1.23;;;;;;;;;;4841932;29;20037;-78
2022/02/19 12:06:15;;;;;;;5.82;1.23;;;;;;;;;;4843000;29;20125;-78
2022/02/19 12:08:46;;;;;;;8.15;1.10;;;;;;;;;;4841786;29;20072;-78
2022/02/19 12:11:13;;;;;;;5.80;1.20;;;;;;;;;;4842365;29;20038;-78
2022/02/19 12:13:46;;;;;;;8.02;1.20;;;;;;;;;;4827470;29;20504;-78
2022/02/19 12:18:50;;;;;;;5.82;0.65;;;;;;;;;;4906704;23;20051;-78
2022/02/19 12:21:35;;;;;;;7.97;0.90;;;;;;;;;;4897734;29;20126;-77
2022/02/19 12:24:22;;;;;;;7.57;0.88;;;;;;;;;;4881105;29;20073;-78
2022/02/19 12:26:57;;;;;;;9.15;0.63;;;;;;;;;;4883124;29;20060;-78
2022/02/19 12:29:31;;;;;;;4.45;0.85;;;;;;;;;;4880158;29;20047;-78
2022/02/19 12:32:03;;;;;;;10.52;2.10;;;;;;;;;;4897618;29;20059;-78
2022/02/19 12:34:30;;;;;;;8.63;1.17;;;;;;;;;;4896398;29;20033;-78
2022/02/19 12:36:57;;;;;;;10.15;2.05;;;;;;;;;;4881317;29;20639;-78
2022/02/19 12:39:23;;;;;;;6.68;0.80;;;;;;;;;;4880744;29;20036;-78
2022/02/19 12:41:59;;;;;;;7.82;1.15;;;;;;;;;;4882460;29;20123;-78
2022/02/19 12:44:25;;;;;;;9.55;0.88;;;;;;;;;;4877994;29;20116;-78
2022/02/19 12:46:53;;;;;;;8.60;1.17;;;;;;;;;;4887197;29;20641;-78
2022/02/19 12:49:19;;;;;;;6.85;0.90;;;;;;;;;;4893127;29;20138;-78
2022/02/19 12:51:56;;;;;;;8.73;1.00;;;;;;;;;;4878700;29;20045;-78
2022/02/19 12:54:32;;;;;;;8.98;0.98;;;;;;;;;;4880525;29;20029;-77
2022/02/19 12:56:58;;;;;;;8.10;1.10;;;;;;;;;;4890198;29;20170;-78
2022/02/19 12:59:30;;;;;;;6.90;1.02;;;;;;;;;;4882697;29;20472;-78
2022/02/19 13:01:56;;;;;;;6.05;0.70;;;;;;;;;;4880056;29;20045;-78
2022/02/19 13:04:32;;;;;;;6.65;1.05;;;;;;;;;;4882511;29;20138;-78
2022/02/19 13:06:59;;;;;;;9.25;1.38;;;;;;;;;;4883358;29;20143;-78
2022/02/19 13:09:27;;;;;;;9.23;1.20;;;;;;;;;;4885673;29;20391;-78
2022/02/19 13:11:55;;;;;;;8.80;1.50;;;;;;;;;;4892756;29;20044;-78
2022/02/19 13:14:22;;;;;;;10.57;1.10;;;;;;;;;;4887009;29;20025;-78
2022/02/19 13:17:05;;;;;;;8.40;1.17;;;;;;;;;;4884322;29;20049;-78
2022/02/19 13:19:35;;;;;;;7.80;1.10;;;;;;;;;;4888092;29;20044;-78
2022/02/19 13:22:05;;;;;;;7.53;1.15;;;;;;;;;;4886463;29;20072;-78
2022/02/19 13:24:34;;;;;;;6.43;1.23;;;;;;;;;;4883501;29;20032;-78
2022/02/19 13:27:10;;;;;;;6.78;1.15;;;;;;;;;;4884253;29;20077;-78
2022/02/19 13:29:37;;;;;;;8.55;1.45;;;;;;;;;;4882264;29;20033;-78
2022/02/19 13:32:06;;;;;;;10.20;1.25;;;;;;;;;;4877596;29;20076;-78
2022/02/19 13:34:38;;;;;;;7.65;1.33;;;;;;;;;;4881892;29;20044;-78
2022/02/19 13:37:05;;;;;;;9.52;1.38;;;;;;;;;;4886455;29;20032;-78
2022/02/19 13:39:38;;;;;;;9.35;1.35;;;;;;;;;;4881210;29;20412;-78
2022/02/19 13:42:04;;;;;;;6.30;0.88;;;;;;;;;;4888180;29;20036;-78
2022/02/19 13:44:31;;;;;;;6.90;1.45;;;;;;;;;;4886665;29;20423;-78
2022/02/19 13:46:58;;;;;;;11.38;1.67;;;;;;;;;;4877713;29;20057;-78
2022/02/19 13:49:37;;;;;;;13.57;2.22;;;;;;;;;;4879066;29;20039;-78
2022/02/19 13:52:04;;;;;;;8.13;1.20;;;;;;;;;;4873457;29;20074;-78
2022/02/19 13:54:39;;;;;;;8.43;1.20;;;;;;;;;;4877636;29;20033;-78
2022/02/19 13:57:18;;;;;;;5.93;1.20;;;;;;;;;;4872107;29;20420;-78
2022/02/19 14:00:00;;;;;;;7.43;1.00;;;;;;;;;;4874689;29;20033;-78
2022/02/19 14:02:26;;;;;;;6.80;1.05;;;;;;;;;;4867255;29;20055;-78
2022/02/19 14:05:00;;;;;;;6.63;0.88;;;;;;;;;;4877588;29;20130;-78
2022/02/19 14:07:26;;;;;;;6.50;0.70;;;;;;;;;;4876765;29;20044;-78
2022/02/19 14:10:04;;;;;;;9.20;0.88;;;;;;;;;;4870881;29;20041;-78
2022/02/19 14:12:34;;;;;;;8.82;0.90;;;;;;;;;;4869896;29;20068;-77
2022/02/19 14:15:01;;;;;;;6.43;0.80;;;;;;;;;;4877580;29;20025;-78
2022/02/19 14:17:36;;;;;;;7.30;1.05;;;;;;;;;;4865516;29;20057;-78
2022/02/19 14:20:04;;;;;;;11.73;1.65;;;;;;;;;;4871053;29;20108;-78
2022/02/19 14:22:40;;;;;;;6.43;1.00;;;;;;;;;;4866745;29;20484;-78
2022/02/19 14:25:08;;;;;;;5.55;0.95;;;;;;;;;;4870988;29;20154;-78
2022/02/19 14:27:47;;;;;;;10.88;3.90;;;;;;;;;;4876725;29;20123;-78
2022/02/19 14:30:13;;;;;;;4.85;1.40;;;;;;;;;;4877029;29;20033;-78
2022/02/19 14:32:39;;;;;;;7.68;1.30;;;;;;;;;;4876383;29;20045;-78
2022/02/19 14:35:05;;;;;;;9.77;1.33;;;;;;;;;;4876678;29;20033;-78
2022/02/19 14:37:31;;;;;;;10.25;1.05;;;;;;;;;;4876584;29;20045;-78
2022/02/19 14:39:57;;;;;;;12.60;1.40;;;;;;;;;;4876730;29;20033;-78
2022/02/19 14:42:23;;;;;;;6.57;1.10;;;;;;;;;;4875709;29;20926;-78
2022/02/19 14:44:50;;;;;;;7.38;1.00;;;;;;;;;;4876925;29;20037;-78
2022/02/19 14:47:17;;;;;;;9.25;0.95;;;;;;;;;;4869115;29;20045;-78
2022/02/19 14:49:43;;;;;;;4.25;0.65;;;;;;;;;;4867977;29;20048;-78